Observation data for Lamesa on 02/14/2018      Previous  Date  Next       Current Mesonet Observations  Soil Data  Daily Summary Page  Observations in Plain Language
KLES 140600Z 17002KT 05/M00 A3025 RMK A01 T00531004  RH  067%=      5-min Rain = 0
KLES 140605Z 17000KT 05/M00 A3025 RMK A01 T00531002  RH  068%=      5-min Rain = 0
KLES 140610Z 18004KT 06/00 A3026 RMK A01 T00550001  RH  069%=      5-min Rain = 0
KLES 140615Z 19005KT 06/01 A3026 RMK A01 T00600007  RH  070%=      5-min Rain = 0
KLES 140620Z 18004KT 06/01 A3026 RMK A01 T00620010  RH  070%=      5-min Rain = 0
KLES 140625Z 17003KT 06/01 A3026 RMK A01 T00610008  RH  070%=      5-min Rain = 0
KLES 140630Z 12003KT 06/00 A3026 RMK A01 T00560002  RH  069%=      5-min Rain = 0
KLES 140635Z 12003KT 06/00 A3025 RMK A01 T00550000  RH  069%=      5-min Rain = 0
KLES 140640Z 14004KT 06/00 A3025 RMK A01 T00570002  RH  068%=      5-min Rain = 0
KLES 140645Z 15004KT 06/00 A3025 RMK A01 T00590003  RH  068%=      5-min Rain = 0
KLES 140650Z 16003KT 06/00 A3025 RMK A01 T00590004  RH  068%=      5-min Rain = 0
KLES 140655Z 25001KT 06/00 A3026 RMK A01 T00600003  RH  068%=      5-min Rain = 0
KLES 140700Z 18001KT 06/00 A3025 RMK A01 T00590002  RH  068%=      5-min Rain = 0
KLES 140705Z 17002KT 06/00 A3025 RMK A01 T00580003  RH  069%=      5-min Rain = 0
KLES 140710Z 15003KT 06/00 A3025 RMK A01 T00570002  RH  069%=      5-min Rain = 0
KLES 140715Z 16004KT 06/00 A3025 RMK A01 T00560003  RH  069%=      5-min Rain = 0
KLES 140720Z 16004KT 06/00 A3025 RMK A01 T00550004  RH  071%=      5-min Rain = 0
KLES 140725Z 16005KT 06/01 A3025 RMK A01 T00560007  RH  072%=      5-min Rain = 0
KLES 140730Z 17005KT 06/01 A3025 RMK A01 T00590011  RH  072%=      5-min Rain = 0
KLES 140735Z 16004KT 06/01 A3025 RMK A01 T00610011  RH  071%=      5-min Rain = 0
KLES 140740Z 17005KT 06/01 A3025 RMK A01 T00610010  RH  071%=      5-min Rain = 0
KLES 140745Z 18005KT 06/01 A3026 RMK A01 T00600010  RH  071%=      5-min Rain = 0
KLES 140750Z 18005KT 06/01 A3026 RMK A01 T00610014  RH  073%=      5-min Rain = 0
KLES 140755Z 19005KT 06/01 A3026 RMK A01 T00610013  RH  073%=      5-min Rain = 0
KLES 140800Z 18006KT 06/01 A3026 RMK A01 T00590012  RH  073%=      5-min Rain = 0
KLES 140805Z 17007KT 06/01 A3025 RMK A01 T00570011  RH  073%=      5-min Rain = 0
KLES 140810Z 17007KT 06/01 A3025 RMK A01 T00590014  RH  074%=      5-min Rain = 0
KLES 140815Z 16006KT 06/02 A3025 RMK A01 T00620016  RH  073%=      5-min Rain = 0
KLES 140820Z 16005KT 07/02 A3025 RMK A01 T00650018  RH  073%=      5-min Rain = 0
KLES 140825Z 17004KT 07/02 A3025 RMK A01 T00650016  RH  072%=      5-min Rain = 0
KLES 140830Z 16005KT 06/02 A3025 RMK A01 T00640016  RH  072%=      5-min Rain = 0
KLES 140835Z 17005KT 06/02 A3024 RMK A01 T00630016  RH  073%=      5-min Rain = 0
KLES 140840Z 16004KT 06/02 A3024 RMK A01 T00610015  RH  073%=      5-min Rain = 0
KLES 140845Z 16004KT 06/02 A3024 RMK A01 T00600015  RH  074%=      5-min Rain = 0
KLES 140850Z 15003KT 06/02 A3024 RMK A01 T00590015  RH  074%=      5-min Rain = 0
KLES 140855Z 14002KT 06/01 A3023 RMK A01 T00580014  RH  074%=      5-min Rain = 0
KLES 140900Z 16003KT 06/01 A3023 RMK A01 T00570013  RH  074%=      5-min Rain = 0
KLES 140905Z 17005KT 06/02 A3023 RMK A01 T00580016  RH  075%=      5-min Rain = 0
KLES 140910Z 18003KT 06/02 A3023 RMK A01 T00580016  RH  075%=      5-min Rain = 0
KLES 140915Z 18003KT 06/02 A3023 RMK A01 T00560015  RH  076%=      5-min Rain = 0
KLES 140920Z 17003KT 05/01 A3023 RMK A01 T00540014  RH  076%=      5-min Rain = 0
KLES 140925Z 17003KT 05/01 A3023 RMK A01 T00530013  RH  076%=      5-min Rain = 0
KLES 140930Z 17004KT 05/01 A3023 RMK A01 T00510013  RH  077%=      5-min Rain = 0
KLES 140935Z 17005KT 05/01 A3023 RMK A01 T00510013  RH  077%=      5-min Rain = 0
KLES 140940Z 18005KT 05/01 A3023 RMK A01 T00500014  RH  078%=      5-min Rain = 0
KLES 140945Z 19005KT 05/02 A3023 RMK A01 T00520019  RH  080%=      5-min Rain = 0
KLES 140950Z 18004KT 05/02 A3023 RMK A01 T00530020  RH  080%=      5-min Rain = 0
KLES 140955Z 17005KT 05/02 A3023 RMK A01 T00520019  RH  080%=      5-min Rain = 0
KLES 141000Z 18004KT 05/02 A3023 RMK A01 T00510018  RH  080%=      5-min Rain = 0
KLES 141005Z 18003KT 05/02 A3023 RMK A01 T00500018  RH  081%=      5-min Rain = 0
KLES 141010Z 22003KT 05/02 A3023 RMK A01 T00510020  RH  081%=      5-min Rain = 0
KLES 141015Z 21004KT 05/02 A3023 RMK A01 T00530022  RH  081%=      5-min Rain = 0
KLES 141020Z 20006KT 05/02 A3023 RMK A01 T00540021  RH  081%=      5-min Rain = 0
KLES 141025Z 20006KT 05/02 A3023 RMK A01 T00520020  RH  081%=      5-min Rain = 0
KLES 141030Z 21007KT 05/02 A3024 RMK A01 T00490018  RH  081%=      5-min Rain = 0
KLES 141035Z 21007KT 05/02 A3024 RMK A01 T00460016  RH  082%=      5-min Rain = 0
KLES 141040Z 21006KT 05/01 A3024 RMK A01 T00450014  RH  082%=      5-min Rain = 0
KLES 141045Z 21005KT 04/01 A3023 RMK A01 T00440013  RH  082%=      5-min Rain = 0
KLES 141050Z 21006KT 04/01 A3024 RMK A01 T00430012  RH  081%=      5-min Rain = 0
KLES 141055Z 21005KT 04/01 A3023 RMK A01 T00430012  RH  081%=      5-min Rain = 0
KLES 141100Z 20006KT 04/01 A3023 RMK A01 T00440013  RH  081%=      5-min Rain = 0
KLES 141105Z 19006KT 04/01 A3023 RMK A01 T00420009  RH  080%=      5-min Rain = 0
KLES 141110Z 19006KT 04/01 A3023 RMK A01 T00380008  RH  082%=      5-min Rain = 0
KLES 141115Z 19005KT 04/01 A3023 RMK A01 T00360008  RH  083%=      5-min Rain = 0
KLES 141120Z 20005KT 04/01 A3022 RMK A01 T00360008  RH  083%=      5-min Rain = 0
KLES 141125Z 19005KT 04/01 A3022 RMK A01 T00380009  RH  083%=      5-min Rain = 0
KLES 141130Z 20005KT 04/01 A3023 RMK A01 T00390009  RH  082%=      5-min Rain = 0
KLES 141135Z 22004KT 04/02 A3022 RMK A01 T00420015  RH  083%=      5-min Rain = 0
KLES 141140Z 20005KT 05/02 A3023 RMK A01 T00470019  RH  083%=      5-min Rain = 0
KLES 141145Z 20005KT 05/02 A3023 RMK A01 T00450017  RH  083%=      5-min Rain = 0
KLES 141150Z 20005KT 04/02 A3022 RMK A01 T00420015  RH  083%=      5-min Rain = 0
KLES 141155Z 20004KT 04/01 A3022 RMK A01 T00410014  RH  084%=      5-min Rain = 0
KLES 141200Z 21004KT 04/02 A3022 RMK A01 T00400015  RH  085%=      5-min Rain = 0
KLES 141205Z 22004KT 04/02 A3022 RMK A01 T00430018  RH  085%=      5-min Rain = 0
KLES 141210Z 23004KT 05/02 A3022 RMK A01 T00460020  RH  084%=      5-min Rain = 0
KLES 141215Z 24004KT 05/02 A3022 RMK A01 T00510022  RH  083%=      5-min Rain = 0
KLES 141220Z 23004KT 05/02 A3022 RMK A01 T00510020  RH  082%=      5-min Rain = 0
KLES 141225Z 23003KT 05/02 A3021 RMK A01 T00490018  RH  081%=      5-min Rain = 0
KLES 141230Z 23003KT 05/01 A3022 RMK A01 T00450012  RH  080%=      5-min Rain = 0
KLES 141235Z 23004KT 04/01 A3022 RMK A01 T00430014  RH  082%=      5-min Rain = 0
KLES 141240Z 22005KT 05/02 A3022 RMK A01 T00490021  RH  083%=      5-min Rain = 0
KLES 141245Z 22005KT 05/02 A3022 RMK A01 T00490019  RH  082%=      5-min Rain = 0
KLES 141250Z 22004KT 05/02 A3022 RMK A01 T00490019  RH  082%=      5-min Rain = 0
KLES 141255Z 21002KT 05/02 A3021 RMK A01 T00490018  RH  082%=      5-min Rain = 0
KLES 141300Z 22001KT 05/01 A3021 RMK A01 T00450014  RH  081%=      5-min Rain = 0
KLES 141305Z 21001KT 04/01 A3021 RMK A01 T00440013  RH  081%=      5-min Rain = 0
KLES 141310Z 25000KT 04/02 A3021 RMK A01 T00440015  RH  082%=      5-min Rain = 0
KLES 141315Z 23003KT 05/02 A3023 RMK A01 T00470018  RH  083%=      5-min Rain = 0
KLES 141320Z 21005KT 05/02 A3023 RMK A01 T00490021  RH  083%=      5-min Rain = 0
KLES 141325Z 21006KT 05/02 A3023 RMK A01 T00500023  RH  083%=      5-min Rain = 0
KLES 141330Z 21005KT 05/02 A3023 RMK A01 T00490021  RH  083%=      5-min Rain = 0
KLES 141335Z 22005KT 05/02 A3022 RMK A01 T00480019  RH  083%=      5-min Rain = 0
KLES 141340Z 22004KT 05/02 A3022 RMK A01 T00480020  RH  083%=      5-min Rain = 0
KLES 141345Z 21004KT 05/02 A3022 RMK A01 T00480019  RH  082%=      5-min Rain = 0
KLES 141350Z 21004KT 05/02 A3021 RMK A01 T00470018  RH  083%=      5-min Rain = 0
KLES 141355Z 21005KT 05/02 A3021 RMK A01 T00460018  RH  083%=      5-min Rain = 0
KLES 141400Z 20005KT 05/02 A3021 RMK A01 T00460018  RH  083%=      5-min Rain = 0
KLES 141405Z 19004KT 05/02 A3021 RMK A01 T00450017  RH  083%=      5-min Rain = 0
KLES 141410Z 19006KT 05/02 A3022 RMK A01 T00450018  RH  083%=      5-min Rain = 0
KLES 141415Z 21005KT 05/02 A3022 RMK A01 T00470019  RH  083%=      5-min Rain = 0
KLES 141420Z 21004KT 05/02 A3022 RMK A01 T00500020  RH  082%=      5-min Rain = 0
KLES 141425Z 25003KT 05/02 A3022 RMK A01 T00530023  RH  082%=      5-min Rain = 0
KLES 141430Z 27004KT 06/02 A3022 RMK A01 T00560022  RH  080%=      5-min Rain = 0
KLES 141435Z 30003KT 06/02 A3022 RMK A01 T00590021  RH  078%=      5-min Rain = 0
KLES 141440Z 29003KT 06/02 A3022 RMK A01 T00600021  RH  077%=      5-min Rain = 0
KLES 141445Z 29003KT 06/03 A3022 RMK A01 T00640025  RH  077%=      5-min Rain = 0
KLES 141450Z 28003KT 07/03 A3022 RMK A01 T00670027  RH  077%=      5-min Rain = 0
KLES 141455Z 24002KT 07/03 A3022 RMK A01 T00690029  RH  076%=      5-min Rain = 0
KLES 141500Z 25002KT 07/03 A3022 RMK A01 T00730030  RH  075%=      5-min Rain = 0
KLES 141505Z 22003KT 08/03 A3022 RMK A01 T00770032  RH  074%=      5-min Rain = 0
KLES 141510Z 22003KT 08/03 A3022 RMK A01 T00800034  RH  074%=      5-min Rain = 0
KLES 141515Z 22003KT 08/04 A3022 RMK A01 T00820035  RH  073%=      5-min Rain = 0
KLES 141520Z 21004KT 09/04 A3022 RMK A01 T00860038  RH  073%=      5-min Rain = 0
KLES 141525Z 22004KT 09/04 A3022 RMK A01 T00890040  RH  072%=      5-min Rain = 0
KLES 141530Z 22004KT 09/04 A3022 RMK A01 T00910040  RH  071%=      5-min Rain = 0
KLES 141535Z 21004KT 10/04 A3022 RMK A01 T00950042  RH  070%=      5-min Rain = 0
KLES 141540Z 21005KT 10/04 A3022 RMK A01 T00970042  RH  069%=      5-min Rain = 0
KLES 141545Z 21005KT 10/04 A3022 RMK A01 T00980042  RH  069%=      5-min Rain = 0
KLES 141550Z 21005KT 10/04 A3022 RMK A01 T01000043  RH  069%=      5-min Rain = 0
KLES 141555Z 20005KT 10/04 A3022 RMK A01 T01010043  RH  068%=      5-min Rain = 0
KLES 141600Z 20005KT 10/05 A3022 RMK A01 T01040046  RH  068%=      5-min Rain = 0
KLES 141605Z 20006KT 11/05 A3022 RMK A01 T01100046  RH  065%=      5-min Rain = 0
KLES 141610Z 20006KT 12/05 A3022 RMK A01 T01150048  RH  064%=      5-min Rain = 0
KLES 141615Z 21005KT 12/05 A3021 RMK A01 T01240048  RH  061%=      5-min Rain = 0
KLES 141620Z 22005KT 13/05 A3021 RMK A01 T01260048  RH  060%=      5-min Rain = 0
KLES 141625Z 23006KT 13/05 A3022 RMK A01 T01300049  RH  059%=      5-min Rain = 0
KLES 141630Z 23007KT 13/05 A3022 RMK A01 T01340050  RH  058%=      5-min Rain = 0
KLES 141635Z 23007KT 14/05 A3022 RMK A01 T01350050  RH  057%=      5-min Rain = 0
KLES 141640Z 23007KT 14/05 A3022 RMK A01 T01380051  RH  056%=      5-min Rain = 0
KLES 141645Z 22007KT 14/05 A3021 RMK A01 T01420052  RH  055%=      5-min Rain = 0
KLES 141650Z 21009KT 14/05 A3021 RMK A01 T01440053  RH  055%=      5-min Rain = 0
KLES 141655Z 21008KT 15/05 A3021 RMK A01 T01480054  RH  054%=      5-min Rain = 0
KLES 141700Z 21008KT 15/05 A3022 RMK A01 T01520052  RH  052%=      5-min Rain = 0
KLES 141705Z 21008KT 15/05 A3022 RMK A01 T01540052  RH  051%=      5-min Rain = 0
KLES 141710Z 21008KT 16/05 A3021 RMK A01 T01590053  RH  050%=      5-min Rain = 0
KLES 141715Z 22006KT 16/05 A3021 RMK A01 T01630053  RH  048%=      5-min Rain = 0
KLES 141720Z 20007KT 17/05 A3021 RMK A01 T01660052  RH  048%=      5-min Rain = 0
KLES 141725Z 21006KT 17/05 A3021 RMK A01 T01670051  RH  047%=      5-min Rain = 0
KLES 141730Z 20007KT 17/05 A302 RMK A01 T01720051  RH  045%=      5-min Rain = 0
KLES 141735Z 21008KT 18/05 A302 RMK A01 T01760050  RH  044%=      5-min Rain = 0
KLES 141740Z 22008KT 18/05 A302 RMK A01 T01750048  RH  044%=      5-min Rain = 0
KLES 141745Z 21008KT 18/05 A302 RMK A01 T01780047  RH  043%=      5-min Rain = 0
KLES 141750Z 22008KT 18/05 A3019 RMK A01 T01820045  RH  041%=      5-min Rain = 0
KLES 141755Z 21009KT 19/05 A3019 RMK A01 T01880047  RH  040%=      5-min Rain = 0
KLES 141800Z 21009KT 19/04 A3018 RMK A01 T01900044  RH  039%=      5-min Rain = 0
KLES 141805Z 21010KT 20/05 A3018 RMK A01 T01950045  RH  038%=      5-min Rain = 0
KLES 141810Z 21010KT 20/04 A3018 RMK A01 T02010042  RH  036%=      5-min Rain = 0
KLES 141815Z 20010KT 21/04 A3017 RMK A01 T02050041  RH  035%=      5-min Rain = 0
KLES 141820Z 20010KT 21/04 A3017 RMK A01 T02110037  RH  032%=      5-min Rain = 0
KLES 141825Z 21011KT 21/03 A3017 RMK A01 T02140032  RH  031%=      5-min Rain = 0
KLES 141830Z 19010G15KT 22/03 A3017 RMK A01 T02170033  RH  030%=      5-min Rain = 0
KLES 141835Z 21011KT 22/03 A3016 RMK A01 T02170029  RH  029%=      5-min Rain = 0
KLES 141840Z 20011KT 22/03 A3016 RMK A01 T02180029  RH  029%=      5-min Rain = 0
KLES 141845Z 19011KT 22/03 A3015 RMK A01 T02210027  RH  028%=      5-min Rain = 0
KLES 141850Z 21011KT 22/03 A3015 RMK A01 T02220025  RH  028%=      5-min Rain = 0
KLES 141855Z 21010KT 22/02 A3015 RMK A01 T02230023  RH  027%=      5-min Rain = 0
KLES 141900Z 20009KT 23/02 A3015 RMK A01 T02250023  RH  027%=      5-min Rain = 0
KLES 141905Z 21010KT 23/02 A3014 RMK A01 T02320024  RH  026%=      5-min Rain = 0
KLES 141910Z 20011KT 24/02 A3014 RMK A01 T02380016  RH  024%=      5-min Rain = 0
KLES 141915Z 20011KT 24/01 A3013 RMK A01 T02430014  RH  023%=      5-min Rain = 0
KLES 141920Z 20010KT 24/01 A3013 RMK A01 T02420012  RH  022%=      5-min Rain = 0
KLES 141925Z 19012G17KT 25/01 A3013 RMK A01 T02450009  RH  021%=      5-min Rain = 0
KLES 141930Z 19012G18KT 25/00 A3013 RMK A01 T02480004  RH  020%=      5-min Rain = 0
KLES 141935Z 19014KT 25/00 A3012 RMK A01 T024900-0  RH  020%=      5-min Rain = 0
KLES 141940Z 19015KT 25/M00 A3012 RMK A01 T02501001  RH  019%=      5-min Rain = 0
KLES 141945Z 20013G19KT 25/00 A3012 RMK A01 T02510002  RH  020%=      5-min Rain = 0
KLES 141950Z 18012KT 25/01 A3011 RMK A01 T02520014  RH  021%=      5-min Rain = 0
KLES 141955Z 17013KT 25/01 A3011 RMK A01 T02510011  RH  021%=      5-min Rain = 0
KLES 142000Z 18011KT 25/02 A301 RMK A01 T02520016  RH  022%=      5-min Rain = 0
KLES 142005Z 17012G17KT 25/02 A301 RMK A01 T02480019  RH  023%=      5-min Rain = 0
KLES 142010Z 19009G14KT 25/01 A301 RMK A01 T02470012  RH  022%=      5-min Rain = 0
KLES 142015Z 20010KT 26/M00 A301 RMK A01 T02581001  RH  019%=      5-min Rain = 0
KLES 142020Z 20011G17KT 26/00 A3009 RMK A01 T02630000  RH  018%=      5-min Rain = 0
KLES 142025Z 20013G19KT 26/M00 A3009 RMK A01 T02641003  RH  018%=      5-min Rain = 0
KLES 142030Z 18013G18KT 27/00 A3009 RMK A01 T02650000  RH  018%=      5-min Rain = 0
KLES 142035Z 18015G20KT 27/01 A3009 RMK A01 T02650008  RH  019%=      5-min Rain = 0
KLES 142040Z 17015KT 27/02 A3008 RMK A01 T02650015  RH  020%=      5-min Rain = 0
KLES 142045Z 18013G18KT 27/02 A3008 RMK A01 T02650017  RH  020%=      5-min Rain = 0
KLES 142050Z 18014G19KT 27/01 A3008 RMK A01 T02660013  RH  020%=      5-min Rain = 0
KLES 142055Z 19016G22KT 27/01 A3008 RMK A01 T02650010  RH  019%=      5-min Rain = 0
KLES 142100Z 19018KT 26/01 A3007 RMK A01 T02630006  RH  019%=      5-min Rain = 0
KLES 142105Z 19016G21KT 26/01 A3007 RMK A01 T02600009  RH  020%=      5-min Rain = 0
KLES 142110Z 19017G22KT 26/01 A3007 RMK A01 T02580009  RH  020%=      5-min Rain = 0
KLES 142115Z 19016G21KT 26/01 A3007 RMK A01 T02560009  RH  020%=      5-min Rain = 0
KLES 142120Z 19014KT 26/01 A3007 RMK A01 T02570008  RH  020%=      5-min Rain = 0
KLES 142125Z 19016G21KT 26/00 A3007 RMK A01 T02560004  RH  019%=      5-min Rain = 0
KLES 142130Z 19014G19KT 26/01 A3006 RMK A01 T02550008  RH  020%=      5-min Rain = 0
KLES 142135Z 20016KT 26/00 A3006 RMK A01 T02590002  RH  019%=      5-min Rain = 0
KLES 142140Z 20015G20KT 26/00 A3006 RMK A01 T02620004  RH  019%=      5-min Rain = 0
KLES 142145Z 19016G22KT 26/01 A3006 RMK A01 T02630005  RH  019%=      5-min Rain = 0
KLES 142150Z 20015G21KT 26/01 A3005 RMK A01 T02630007  RH  019%=      5-min Rain = 0
KLES 142155Z 19016G22KT 26/01 A3005 RMK A01 T02630007  RH  019%=      5-min Rain = 0
KLES 142200Z 20018G24KT 26/00 A3005 RMK A01 T02620003  RH  019%=      5-min Rain = 0
KLES 142205Z 20016G22KT 26/01 A3005 RMK A01 T02630007  RH  019%=      5-min Rain = 0
KLES 142210Z 19019G26KT 27/01 A3005 RMK A01 T02650009  RH  019%=      5-min Rain = 0
KLES 142215Z 20018KT 26/01 A3005 RMK A01 T02630010  RH  019%=      5-min Rain = 0
KLES 142220Z 20017G24KT 26/01 A3004 RMK A01 T02630012  RH  020%=      5-min Rain = 0
KLES 142225Z 20017KT 26/01 A3004 RMK A01 T02640014  RH  020%=      5-min Rain = 0
KLES 142230Z 20017KT 26/02 A3004 RMK A01 T02640016  RH  020%=      5-min Rain = 0
KLES 142235Z 20015KT 26/02 A3004 RMK A01 T02640016  RH  020%=      5-min Rain = 0
KLES 142240Z 20015G21KT 27/02 A3003 RMK A01 T02660020  RH  021%=      5-min Rain = 0
KLES 142245Z 20018G24KT 27/02 A3003 RMK A01 T02660021  RH  021%=      5-min Rain = 0
KLES 142250Z 21016G21KT 27/02 A3003 RMK A01 T02650021  RH  021%=      5-min Rain = 0
KLES 142255Z 21016G21KT 26/02 A3003 RMK A01 T02640022  RH  021%=      5-min Rain = 0
KLES 142300Z 21016G21KT 26/02 A3003 RMK A01 T02620022  RH  021%=      5-min Rain = 0
KLES 142305Z 21015KT 27/02 A3002 RMK A01 T02650023  RH  021%=      5-min Rain = 0
KLES 142310Z 21014KT 26/02 A3002 RMK A01 T02640023  RH  021%=      5-min Rain = 0
KLES 142315Z 20015KT 26/02 A3002 RMK A01 T02630022  RH  021%=      5-min Rain = 0
KLES 142320Z 20015G20KT 26/02 A3002 RMK A01 T02620021  RH  021%=      5-min Rain = 0
KLES 142325Z 21015KT 26/02 A3002 RMK A01 T02620021  RH  021%=      5-min Rain = 0
KLES 142330Z 21015KT 26/02 A3002 RMK A01 T02600022  RH  022%=      5-min Rain = 0
KLES 142335Z 21014KT 26/02 A3002 RMK A01 T02590022  RH  022%=      5-min Rain = 0
KLES 142340Z 21014KT 26/02 A3002 RMK A01 T02580022  RH  022%=      5-min Rain = 0
KLES 142345Z 21014KT 26/02 A3002 RMK A01 T02550021  RH  022%=      5-min Rain = 0
KLES 142350Z 21012KT 25/02 A3002 RMK A01 T02530022  RH  023%=      5-min Rain = 0
KLES 142355Z 21010KT 25/02 A3002 RMK A01 T02500023  RH  023%=      5-min Rain = 0
KLES 150000Z 21010KT 25/02 A3002 RMK A01 T02470023  RH  024%=      5-min Rain = 0
KLES 150005Z 21009KT 24/02 A3002 RMK A01 T02430024  RH  024%=      5-min Rain = 0
KLES 150010Z 21008KT 24/03 A3002 RMK A01 T02370027  RH  026%=      5-min Rain = 0
KLES 150015Z 21008KT 23/03 A3002 RMK A01 T02300028  RH  027%=      5-min Rain = 0
KLES 150020Z 21009KT 23/03 A3003 RMK A01 T02250029  RH  028%=      5-min Rain = 0
KLES 150025Z 20007KT 22/03 A3003 RMK A01 T02190032  RH  030%=      5-min Rain = 0
KLES 150030Z 19008KT 21/03 A3003 RMK A01 T02110031  RH  031%=      5-min Rain = 0
KLES 150035Z 19009KT 21/03 A3003 RMK A01 T02110034  RH  032%=      5-min Rain = 0
KLES 150040Z 19008KT 21/03 A3003 RMK A01 T02100034  RH  032%=      5-min Rain = 0
KLES 150045Z 18008KT 21/03 A3003 RMK A01 T02060033  RH  032%=      5-min Rain = 0
KLES 150050Z 18009KT 20/03 A3003 RMK A01 T02030031  RH  032%=      5-min Rain = 0
KLES 150055Z 18009KT 20/03 A3003 RMK A01 T02030030  RH  032%=      5-min Rain = 0
KLES 150100Z 18008KT 20/03 A3003 RMK A01 T02000029  RH  033%=      5-min Rain = 0
KLES 150105Z 18008KT 20/03 A3003 RMK A01 T01950028  RH  033%=      5-min Rain = 0
KLES 150110Z 18008KT 19/03 A3003 RMK A01 T01920028  RH  034%=      5-min Rain = 0
KLES 150115Z 17008KT 19/03 A3003 RMK A01 T01890028  RH  035%=      5-min Rain = 0
KLES 150120Z 17008KT 19/03 A3003 RMK A01 T01860031  RH  036%=      5-min Rain = 0
KLES 150125Z 18009KT 19/03 A3003 RMK A01 T01860033  RH  037%=      5-min Rain = 0
KLES 150130Z 18010KT 19/04 A3003 RMK A01 T01890036  RH  037%=      5-min Rain = 0
KLES 150135Z 18010KT 19/04 A3003 RMK A01 T01910040  RH  037%=      5-min Rain = 0
KLES 150140Z 18010KT 19/04 A3003 RMK A01 T01930042  RH  037%=      5-min Rain = 0
KLES 150145Z 18010KT 19/04 A3003 RMK A01 T01920044  RH  038%=      5-min Rain = 0
KLES 150150Z 18009KT 19/05 A3002 RMK A01 T01910045  RH  039%=      5-min Rain = 0
KLES 150155Z 18009KT 19/05 A3002 RMK A01 T01900046  RH  039%=      5-min Rain = 0
KLES 150200Z 18010KT 19/05 A3003 RMK A01 T01880047  RH  040%=      5-min Rain = 0
KLES 150205Z 18009KT 19/05 A3003 RMK A01 T01850048  RH  041%=      5-min Rain = 0
KLES 150210Z 17009KT 18/05 A3002 RMK A01 T01830048  RH  042%=      5-min Rain = 0
KLES 150215Z 17010KT 18/05 A3002 RMK A01 T01830049  RH  042%=      5-min Rain = 0
KLES 150220Z 17010KT 18/05 A3002 RMK A01 T01810050  RH  042%=      5-min Rain = 0
KLES 150225Z 18011KT 18/05 A3002 RMK A01 T01820052  RH  043%=      5-min Rain = 0
KLES 150230Z 18012KT 19/05 A3003 RMK A01 T01850054  RH  043%=      5-min Rain = 0
KLES 150235Z 17011KT 18/06 A3003 RMK A01 T01840055  RH  043%=      5-min Rain = 0
KLES 150240Z 17011KT 18/06 A3003 RMK A01 T01830056  RH  044%=      5-min Rain = 0
KLES 150245Z 17012KT 18/06 A3003 RMK A01 T01830058  RH  044%=      5-min Rain = 0
KLES 150250Z 17011KT 18/06 A3003 RMK A01 T01830060  RH  045%=      5-min Rain = 0
KLES 150255Z 18011KT 18/06 A3003 RMK A01 T01820061  RH  046%=      5-min Rain = 0
KLES 150300Z 18012KT 18/06 A3003 RMK A01 T01820063  RH  047%=      5-min Rain = 0
KLES 150305Z 18013KT 18/07 A3003 RMK A01 T01820065  RH  047%=      5-min Rain = 0
KLES 150310Z 18012KT 18/06 A3004 RMK A01 T01800064  RH  047%=      5-min Rain = 0
KLES 150315Z 18012KT 18/07 A3004 RMK A01 T01780065  RH  048%=      5-min Rain = 0
KLES 150320Z 18012KT 18/07 A3004 RMK A01 T01770065  RH  049%=      5-min Rain = 0
KLES 150325Z 18013KT 18/07 A3004 RMK A01 T01760066  RH  049%=      5-min Rain = 0
KLES 150330Z 18013KT 18/07 A3004 RMK A01 T01750066  RH  050%=      5-min Rain = 0
KLES 150335Z 18013KT 17/07 A3004 RMK A01 T01740067  RH  050%=      5-min Rain = 0
KLES 150340Z 18013KT 17/07 A3004 RMK A01 T01730067  RH  050%=      5-min Rain = 0
KLES 150345Z 18012KT 17/07 A3005 RMK A01 T01710067  RH  051%=      5-min Rain = 0
KLES 150350Z 18012KT 17/07 A3005 RMK A01 T01700068  RH  052%=      5-min Rain = 0
KLES 150355Z 18011KT 17/07 A3005 RMK A01 T01680068  RH  052%=      5-min Rain = 0
KLES 150400Z 18011KT 17/07 A3005 RMK A01 T01650067  RH  053%=      5-min Rain = 0
KLES 150405Z 17011KT 16/07 A3005 RMK A01 T01630066  RH  053%=      5-min Rain = 0
KLES 150410Z 17010KT 16/07 A3004 RMK A01 T01600065  RH  054%=      5-min Rain = 0
KLES 150415Z 18009KT 16/07 A3004 RMK A01 T01570065  RH  055%=      5-min Rain = 0
KLES 150420Z 18009KT 16/07 A3004 RMK A01 T01550065  RH  056%=      5-min Rain = 0
KLES 150425Z 18009KT 15/06 A3005 RMK A01 T01510064  RH  057%=      5-min Rain = 0
KLES 150430Z 18009KT 15/06 A3005 RMK A01 T01500064  RH  057%=      5-min Rain = 0
KLES 150435Z 17008KT 15/06 A3004 RMK A01 T01480062  RH  057%=      5-min Rain = 0
KLES 150440Z 16008KT 15/06 A3005 RMK A01 T01460061  RH  057%=      5-min Rain = 0
KLES 150445Z 17007KT 14/06 A3005 RMK A01 T01440061  RH  058%=      5-min Rain = 0
KLES 150450Z 17007KT 14/06 A3005 RMK A01 T01420061  RH  059%=      5-min Rain = 0
KLES 150455Z 17008KT 14/06 A3005 RMK A01 T01400061  RH  060%=      5-min Rain = 0
KLES 150500Z 17008KT 14/06 A3005 RMK A01 T01380062  RH  061%=      5-min Rain = 0
KLES 150505Z 17009KT 14/06 A3005 RMK A01 T01380063  RH  061%=      5-min Rain = 0
KLES 150510Z 18008KT 14/07 A3005 RMK A01 T01380066  RH  063%=      5-min Rain = 0
KLES 150515Z 18009KT 14/07 A3005 RMK A01 T01390069  RH  063%=      5-min Rain = 0
KLES 150520Z 18009KT 14/07 A3005 RMK A01 T01410071  RH  064%=      5-min Rain = 0
KLES 150525Z 18008KT 14/07 A3005 RMK A01 T01420073  RH  064%=      5-min Rain = 0
KLES 150530Z 18008KT 14/07 A3005 RMK A01 T01430074  RH  064%=      5-min Rain = 0
KLES 150535Z 18007KT 14/07 A3005 RMK A01 T01410074  RH  065%=      5-min Rain = 0
KLES 150540Z 18007KT 14/07 A3005 RMK A01 T01400074  RH  065%=      5-min Rain = 0
KLES 150545Z 18007KT 14/07 A3005 RMK A01 T01380074  RH  066%=      5-min Rain = 0
KLES 150550Z 18008KT 14/08 A3005 RMK A01 T01380075  RH  067%=      5-min Rain = 0
KLES 150555Z 18007KT 14/08 A3005 RMK A01 T01370076  RH  067%=      5-min Rain = 0

Page generated in 0.0087 seconds.